sensor_id;sensor_type;location;lat;lon;timestamp;P1;durP1;ratioP1;P2;durP2;ratioP2
13463;SDS011;6804;48.774;9.174;2023-06-26T00:00:39;7.95;;;6.60;;
13463;SDS011;6804;48.774;9.174;2023-06-26T00:03:08;8.68;;;6.82;;
13463;SDS011;6804;48.774;9.174;2023-06-26T00:05:38;8.02;;;7.25;;
13463;SDS011;6804;48.774;9.174;2023-06-26T00:08:12;9.77;;;7.28;;
13463;SDS011;6804;48.774;9.174;2023-06-26T00:10:39;7.28;;;6.65;;
13463;SDS011;6804;48.774;9.174;2023-06-26T00:13:07;7.30;;;6.57;;
13463;SDS011;6804;48.774;9.174;2023-06-26T00:15:46;7.70;;;6.90;;
13463;SDS011;6804;48.774;9.174;2023-06-26T00:18:14;7.90;;;6.88;;
13463;SDS011;6804;48.774;9.174;2023-06-26T00:20:43;7.78;;;6.85;;
13463;SDS011;6804;48.774;9.174;2023-06-26T00:23:12;7.35;;;6.55;;
13463;SDS011;6804;48.774;9.174;2023-06-26T00:25:45;7.25;;;6.55;;
13463;SDS011;6804;48.774;9.174;2023-06-26T00:28:12;7.28;;;6.57;;
13463;SDS011;6804;48.774;9.174;2023-06-26T00:30:41;7.70;;;7.00;;
13463;SDS011;6804;48.774;9.174;2023-06-26T00:33:10;8.18;;;7.30;;
13463;SDS011;6804;48.774;9.174;2023-06-26T00:35:42;7.35;;;6.45;;
13463;SDS011;6804;48.774;9.174;2023-06-26T00:38:09;7.47;;;6.70;;
13463;SDS011;6804;48.774;9.174;2023-06-26T00:40:37;7.90;;;7.07;;
13463;SDS011;6804;48.774;9.174;2023-06-26T00:43:07;7.32;;;6.63;;
13463;SDS011;6804;48.774;9.174;2023-06-26T00:45:34;7.65;;;6.85;;
13463;SDS011;6804;48.774;9.174;2023-06-26T00:50:54;7.80;;;6.70;;
13463;SDS011;6804;48.774;9.174;2023-06-26T00:53:23;7.55;;;6.43;;
13463;SDS011;6804;48.774;9.174;2023-06-26T00:55:55;8.00;;;7.22;;
13463;SDS011;6804;48.774;9.174;2023-06-26T00:58:25;8.18;;;7.38;;
13463;SDS011;6804;48.774;9.174;2023-06-26T01:00:55;9.75;;;7.10;;
13463;SDS011;6804;48.774;9.174;2023-06-26T01:03:24;7.90;;;7.10;;
13463;SDS011;6804;48.774;9.174;2023-06-26T01:05:52;7.05;;;6.35;;
13463;SDS011;6804;48.774;9.174;2023-06-26T01:08:23;7.90;;;7.10;;
13463;SDS011;6804;48.774;9.174;2023-06-26T01:10:50;8.18;;;6.40;;
13463;SDS011;6804;48.774;9.174;2023-06-26T01:13:18;7.32;;;6.63;;
13463;SDS011;6804;48.774;9.174;2023-06-26T01:15:46;7.38;;;6.68;;
13463;SDS011;6804;48.774;9.174;2023-06-26T01:18:16;7.70;;;6.90;;
13463;SDS011;6804;48.774;9.174;2023-06-26T01:20:44;7.75;;;6.88;;
13463;SDS011;6804;48.774;9.174;2023-06-26T01:23:14;8.32;;;7.05;;
13463;SDS011;6804;48.774;9.174;2023-06-26T01:25:52;8.32;;;7.53;;
13463;SDS011;6804;48.774;9.174;2023-06-26T01:28:32;7.88;;;7.07;;
13463;SDS011;6804;48.774;9.174;2023-06-26T01:31:02;11.25;;;8.48;;
13463;SDS011;6804;48.774;9.174;2023-06-26T01:33:34;8.55;;;6.85;;
13463;SDS011;6804;48.774;9.174;2023-06-26T01:36:03;8.30;;;7.20;;
13463;SDS011;6804;48.774;9.174;2023-06-26T01:38:34;8.93;;;7.45;;
13463;SDS011;6804;48.774;9.174;2023-06-26T01:41:02;10.02;;;7.75;;
13463;SDS011;6804;48.774;9.174;2023-06-26T01:43:40;9.90;;;6.78;;
13463;SDS011;6804;48.774;9.174;2023-06-26T01:46:20;7.82;;;7.05;;
13463;SDS011;6804;48.774;9.174;2023-06-26T01:51:45;8.02;;;7.22;;
13463;SDS011;6804;48.774;9.174;2023-06-26T01:54:22;8.40;;;7.45;;
13463;SDS011;6804;48.774;9.174;2023-06-26T01:56:52;7.70;;;6.90;;
13463;SDS011;6804;48.774;9.174;2023-06-26T01:59:26;7.78;;;6.88;;
13463;SDS011;6804;48.774;9.174;2023-06-26T02:02:08;7.70;;;6.65;;
13463;SDS011;6804;48.774;9.174;2023-06-26T02:04:35;9.20;;;7.53;;
13463;SDS011;6804;48.774;9.174;2023-06-26T02:07:03;8.05;;;7.10;;
13463;SDS011;6804;48.774;9.174;2023-06-26T02:09:31;8.23;;;6.47;;
13463;SDS011;6804;48.774;9.174;2023-06-26T02:11:58;8.30;;;6.60;;
13463;SDS011;6804;48.774;9.174;2023-06-26T02:14:27;6.97;;;6.28;;
13463;SDS011;6804;48.774;9.174;2023-06-26T02:16:55;7.68;;;6.97;;
13463;SDS011;6804;48.774;9.174;2023-06-26T02:19:23;7.65;;;6.95;;
13463;SDS011;6804;48.774;9.174;2023-06-26T02:21:50;6.88;;;6.18;;
13463;SDS011;6804;48.774;9.174;2023-06-26T02:24:17;6.90;;;6.30;;
13463;SDS011;6804;48.774;9.174;2023-06-26T02:26:44;8.60;;;6.22;;
13463;SDS011;6804;48.774;9.174;2023-06-26T02:29:15;6.80;;;6.20;;
13463;SDS011;6804;48.774;9.174;2023-06-26T02:31:46;7.50;;;6.00;;
13463;SDS011;6804;48.774;9.174;2023-06-26T02:34:14;7.30;;;6.28;;
13463;SDS011;6804;48.774;9.174;2023-06-26T02:36:41;6.32;;;5.72;;
13463;SDS011;6804;48.774;9.174;2023-06-26T02:39:11;6.28;;;5.68;;
13463;SDS011;6804;48.774;9.174;2023-06-26T02:41:39;6.85;;;6.15;;
13463;SDS011;6804;48.774;9.174;2023-06-26T02:44:06;6.82;;;5.72;;
13463;SDS011;6804;48.774;9.174;2023-06-26T02:46:33;5.72;;;5.22;;
13463;SDS011;6804;48.774;9.174;2023-06-26T02:49:10;6.78;;;6.10;;
13463;SDS011;6804;48.774;9.174;2023-06-26T02:51:37;7.32;;;6.10;;
13463;SDS011;6804;48.774;9.174;2023-06-26T02:54:04;6.63;;;5.85;;
13463;SDS011;6804;48.774;9.174;2023-06-26T02:56:34;6.97;;;6.20;;
13463;SDS011;6804;48.774;9.174;2023-06-26T02:59:07;6.35;;;5.68;;
13463;SDS011;6804;48.774;9.174;2023-06-26T03:01:34;8.73;;;6.10;;
13463;SDS011;6804;48.774;9.174;2023-06-26T03:04:01;6.50;;;5.80;;
13463;SDS011;6804;48.774;9.174;2023-06-26T03:06:30;7.35;;;6.20;;
13463;SDS011;6804;48.774;9.174;2023-06-26T03:08:57;6.63;;;5.93;;
13463;SDS011;6804;48.774;9.174;2023-06-26T03:11:25;6.85;;;5.65;;
13463;SDS011;6804;48.774;9.174;2023-06-26T03:13:55;6.70;;;6.00;;
13463;SDS011;6804;48.774;9.174;2023-06-26T03:16:22;6.82;;;6.13;;
13463;SDS011;6804;48.774;9.174;2023-06-26T03:18:49;7.38;;;6.43;;
13463;SDS011;6804;48.774;9.174;2023-06-26T03:21:16;6.82;;;6.13;;
13463;SDS011;6804;48.774;9.174;2023-06-26T03:23:45;7.53;;;6.75;;
13463;SDS011;6804;48.774;9.174;2023-06-26T03:26:12;7.00;;;6.30;;
13463;SDS011;6804;48.774;9.174;2023-06-26T03:28:44;6.60;;;5.97;;
13463;SDS011;6804;48.774;9.174;2023-06-26T03:31:17;7.10;;;6.45;;
13463;SDS011;6804;48.774;9.174;2023-06-26T03:33:44;6.95;;;5.82;;
13463;SDS011;6804;48.774;9.174;2023-06-26T03:36:14;6.45;;;5.85;;
13463;SDS011;6804;48.774;9.174;2023-06-26T03:38:45;6.35;;;5.72;;
13463;SDS011;6804;48.774;9.174;2023-06-26T03:41:13;6.90;;;6.20;;
13463;SDS011;6804;48.774;9.174;2023-06-26T03:43:44;6.57;;;5.97;;
13463;SDS011;6804;48.774;9.174;2023-06-26T03:46:14;6.88;;;6.18;;
13463;SDS011;6804;48.774;9.174;2023-06-26T03:48:43;6.55;;;5.95;;
13463;SDS011;6804;48.774;9.174;2023-06-26T03:51:14;7.90;;;6.07;;
13463;SDS011;6804;48.774;9.174;2023-06-26T03:53:41;6.80;;;6.15;;
13463;SDS011;6804;48.774;9.174;2023-06-26T03:56:10;6.32;;;5.75;;
13463;SDS011;6804;48.774;9.174;2023-06-26T03:58:39;6.45;;;5.85;;
13463;SDS011;6804;48.774;9.174;2023-06-26T04:01:09;6.50;;;5.80;;
13463;SDS011;6804;48.774;9.174;2023-06-26T04:03:37;6.30;;;5.70;;
13463;SDS011;6804;48.774;9.174;2023-06-26T04:06:07;7.63;;;6.57;;
13463;SDS011;6804;48.774;9.174;2023-06-26T04:08:34;6.65;;;6.05;;
13463;SDS011;6804;48.774;9.174;2023-06-26T04:11:02;6.45;;;5.85;;
13463;SDS011;6804;48.774;9.174;2023-06-26T04:13:30;6.85;;;5.82;;
13463;SDS011;6804;48.774;9.174;2023-06-26T04:15:59;6.85;;;5.75;;
13463;SDS011;6804;48.774;9.174;2023-06-26T04:18:28;6.38;;;5.78;;
13463;SDS011;6804;48.774;9.174;2023-06-26T04:21:05;6.53;;;5.70;;
13463;SDS011;6804;48.774;9.174;2023-06-26T04:23:36;9.32;;;6.40;;
13463;SDS011;6804;48.774;9.174;2023-06-26T04:26:07;7.20;;;5.95;;
13463;SDS011;6804;48.774;9.174;2023-06-26T04:28:41;9.25;;;6.53;;
13463;SDS011;6804;48.774;9.174;2023-06-26T04:31:08;6.47;;;5.53;;
13463;SDS011;6804;48.774;9.174;2023-06-26T04:33:36;7.28;;;6.07;;
13463;SDS011;6804;48.774;9.174;2023-06-26T04:36:06;7.00;;;5.50;;
13463;SDS011;6804;48.774;9.174;2023-06-26T04:38:34;6.93;;;6.15;;
13463;SDS011;6804;48.774;9.174;2023-06-26T04:41:01;7.03;;;6.22;;
13463;SDS011;6804;48.774;9.174;2023-06-26T04:43:32;6.97;;;6.28;;
13463;SDS011;6804;48.774;9.174;2023-06-26T04:46:01;7.88;;;6.32;;
13463;SDS011;6804;48.774;9.174;2023-06-26T04:48:29;6.97;;;6.07;;
13463;SDS011;6804;48.774;9.174;2023-06-26T04:50:56;7.53;;;5.78;;
13463;SDS011;6804;48.774;9.174;2023-06-26T04:56:33;8.02;;;6.25;;
13463;SDS011;6804;48.774;9.174;2023-06-26T04:59:02;7.07;;;6.38;;
13463;SDS011;6804;48.774;9.174;2023-06-26T05:01:34;7.60;;;6.80;;
13463;SDS011;6804;48.774;9.174;2023-06-26T05:06:50;7.68;;;6.45;;
13463;SDS011;6804;48.774;9.174;2023-06-26T05:09:18;7.75;;;6.90;;
13463;SDS011;6804;48.774;9.174;2023-06-26T05:11:49;8.25;;;6.97;;
13463;SDS011;6804;48.774;9.174;2023-06-26T05:14:17;7.75;;;6.95;;
13463;SDS011;6804;48.774;9.174;2023-06-26T05:16:51;9.63;;;6.65;;
13463;SDS011;6804;48.774;9.174;2023-06-26T05:19:19;9.02;;;7.47;;
13463;SDS011;6804;48.774;9.174;2023-06-26T05:21:52;7.50;;;6.35;;
13463;SDS011;6804;48.774;9.174;2023-06-26T05:24:22;8.02;;;6.28;;
13463;SDS011;6804;48.774;9.174;2023-06-26T05:26:51;8.23;;;7.43;;
13463;SDS011;6804;48.774;9.174;2023-06-26T05:29:19;8.73;;;6.97;;
13463;SDS011;6804;48.774;9.174;2023-06-26T05:31:47;9.25;;;6.72;;
13463;SDS011;6804;48.774;9.174;2023-06-26T05:34:23;7.53;;;6.10;;
13463;SDS011;6804;48.774;9.174;2023-06-26T05:36:55;6.90;;;6.20;;
13463;SDS011;6804;48.774;9.174;2023-06-26T05:39:30;6.47;;;5.88;;
13463;SDS011;6804;48.774;9.174;2023-06-26T05:41:58;6.63;;;6.03;;
13463;SDS011;6804;48.774;9.174;2023-06-26T05:44:29;6.28;;;5.68;;
13463;SDS011;6804;48.774;9.174;2023-06-26T05:46:58;6.05;;;5.43;;
13463;SDS011;6804;48.774;9.174;2023-06-26T05:49:34;6.30;;;5.70;;
13463;SDS011;6804;48.774;9.174;2023-06-26T05:52:05;6.57;;;5.97;;
13463;SDS011;6804;48.774;9.174;2023-06-26T05:54:33;6.13;;;5.63;;
13463;SDS011;6804;48.774;9.174;2023-06-26T05:57:05;7.22;;;5.97;;
13463;SDS011;6804;48.774;9.174;2023-06-26T05:59:33;6.25;;;5.57;;
13463;SDS011;6804;48.774;9.174;2023-06-26T06:02:07;6.07;;;5.47;;
13463;SDS011;6804;48.774;9.174;2023-06-26T06:04:41;6.05;;;5.45;;
13463;SDS011;6804;48.774;9.174;2023-06-26T06:07:09;6.22;;;5.63;;
13463;SDS011;6804;48.774;9.174;2023-06-26T06:09:36;6.38;;;5.88;;
13463;SDS011;6804;48.774;9.174;2023-06-26T06:12:05;7.63;;;5.82;;
13463;SDS011;6804;48.774;9.174;2023-06-26T06:14:33;7.22;;;5.72;;
13463;SDS011;6804;48.774;9.174;2023-06-26T06:17:01;7.10;;;6.03;;
13463;SDS011;6804;48.774;9.174;2023-06-26T06:19:30;6.40;;;5.80;;
13463;SDS011;6804;48.774;9.174;2023-06-26T06:22:02;6.55;;;5.88;;
13463;SDS011;6804;48.774;9.174;2023-06-26T06:24:30;8.02;;;7.05;;
13463;SDS011;6804;48.774;9.174;2023-06-26T06:27:03;10.85;;;7.40;;
13463;SDS011;6804;48.774;9.174;2023-06-26T06:29:37;8.07;;;7.28;;
13463;SDS011;6804;48.774;9.174;2023-06-26T06:32:06;9.85;;;7.10;;
13463;SDS011;6804;48.774;9.174;2023-06-26T06:34:34;7.95;;;7.15;;
13463;SDS011;6804;48.774;9.174;2023-06-26T06:37:05;10.98;;;7.25;;
13463;SDS011;6804;48.774;9.174;2023-06-26T06:39:37;9.15;;;7.18;;
13463;SDS011;6804;48.774;9.174;2023-06-26T06:42:08;8.05;;;6.90;;
13463;SDS011;6804;48.774;9.174;2023-06-26T06:44:49;7.90;;;7.10;;
13463;SDS011;6804;48.774;9.174;2023-06-26T06:47:19;8.02;;;7.22;;
13463;SDS011;6804;48.774;9.174;2023-06-26T06:49:53;10.55;;;7.50;;
13463;SDS011;6804;48.774;9.174;2023-06-26T06:52:24;8.98;;;7.07;;
13463;SDS011;6804;48.774;9.174;2023-06-26T06:54:53;8.68;;;7.57;;
13463;SDS011;6804;48.774;9.174;2023-06-26T06:57:26;11.63;;;7.80;;
13463;SDS011;6804;48.774;9.174;2023-06-26T06:59:57;10.27;;;7.28;;
13463;SDS011;6804;48.774;9.174;2023-06-26T07:02:26;10.50;;;7.15;;
13463;SDS011;6804;48.774;9.174;2023-06-26T07:07:47;8.98;;;7.00;;
13463;SDS011;6804;48.774;9.174;2023-06-26T07:10:14;11.27;;;7.03;;
13463;SDS011;6804;48.774;9.174;2023-06-26T07:15:31;8.20;;;6.85;;
13463;SDS011;6804;48.774;9.174;2023-06-26T07:17:59;9.32;;;6.68;;
13463;SDS011;6804;48.774;9.174;2023-06-26T07:20:35;8.18;;;7.03;;
13463;SDS011;6804;48.774;9.174;2023-06-26T07:23:07;8.32;;;6.63;;
13463;SDS011;6804;48.774;9.174;2023-06-26T07:25:35;7.40;;;6.63;;
13463;SDS011;6804;48.774;9.174;2023-06-26T07:28:03;8.90;;;6.35;;
13463;SDS011;6804;48.774;9.174;2023-06-26T07:30:46;9.30;;;6.28;;
13463;SDS011;6804;48.774;9.174;2023-06-26T07:33:14;6.80;;;6.10;;
13463;SDS011;6804;48.774;9.174;2023-06-26T07:35:44;10.00;;;7.03;;
13463;SDS011;6804;48.774;9.174;2023-06-26T07:41:01;7.30;;;6.13;;
13463;SDS011;6804;48.774;9.174;2023-06-26T07:43:35;8.50;;;6.40;;
13463;SDS011;6804;48.774;9.174;2023-06-26T07:46:06;9.68;;;6.70;;
13463;SDS011;6804;48.774;9.174;2023-06-26T07:48:35;10.60;;;6.60;;
13463;SDS011;6804;48.774;9.174;2023-06-26T07:51:03;8.63;;;7.07;;
13463;SDS011;6804;48.774;9.174;2023-06-26T07:53:35;10.60;;;7.22;;
13463;SDS011;6804;48.774;9.174;2023-06-26T07:56:06;7.95;;;5.97;;
13463;SDS011;6804;48.774;9.174;2023-06-26T07:58:34;7.35;;;6.53;;
13463;SDS011;6804;48.774;9.174;2023-06-26T08:01:04;8.80;;;7.22;;
13463;SDS011;6804;48.774;9.174;2023-06-26T08:03:34;8.00;;;6.55;;
13463;SDS011;6804;48.774;9.174;2023-06-26T08:06:03;8.13;;;6.40;;
13463;SDS011;6804;48.774;9.174;2023-06-26T08:08:32;9.13;;;6.38;;
13463;SDS011;6804;48.774;9.174;2023-06-26T08:11:10;6.72;;;5.93;;
13463;SDS011;6804;48.774;9.174;2023-06-26T08:13:44;6.60;;;6.10;;
13463;SDS011;6804;48.774;9.174;2023-06-26T08:16:17;6.80;;;6.15;;
13463;SDS011;6804;48.774;9.174;2023-06-26T08:18:45;11.30;;;5.80;;
13463;SDS011;6804;48.774;9.174;2023-06-26T08:21:12;6.88;;;6.13;;
13463;SDS011;6804;48.774;9.174;2023-06-26T08:23:46;6.55;;;5.95;;
13463;SDS011;6804;48.774;9.174;2023-06-26T08:26:17;8.50;;;5.97;;
13463;SDS011;6804;48.774;9.174;2023-06-26T08:28:48;6.50;;;5.70;;
13463;SDS011;6804;48.774;9.174;2023-06-26T08:31:18;6.05;;;4.80;;
13463;SDS011;6804;48.774;9.174;2023-06-26T08:33:46;8.55;;;5.97;;
13463;SDS011;6804;48.774;9.174;2023-06-26T08:36:16;5.90;;;5.30;;
13463;SDS011;6804;48.774;9.174;2023-06-26T08:38:45;6.68;;;5.97;;
13463;SDS011;6804;48.774;9.174;2023-06-26T08:41:13;6.85;;;4.97;;
13463;SDS011;6804;48.774;9.174;2023-06-26T08:43:43;6.78;;;4.55;;
13463;SDS011;6804;48.774;9.174;2023-06-26T08:46:13;5.03;;;4.63;;
13463;SDS011;6804;48.774;9.174;2023-06-26T08:48:45;5.20;;;4.70;;
13463;SDS011;6804;48.774;9.174;2023-06-26T08:51:17;5.93;;;4.80;;
13463;SDS011;6804;48.774;9.174;2023-06-26T08:53:52;4.85;;;4.45;;
13463;SDS011;6804;48.774;9.174;2023-06-26T08:56:28;5.22;;;4.55;;
13463;SDS011;6804;48.774;9.174;2023-06-26T09:01:51;5.40;;;5.00;;
13463;SDS011;6804;48.774;9.174;2023-06-26T09:04:22;5.03;;;4.63;;
13463;SDS011;6804;48.774;9.174;2023-06-26T09:09:39;4.72;;;4.32;;
13463;SDS011;6804;48.774;9.174;2023-06-26T09:12:07;4.75;;;4.38;;
13463;SDS011;6804;48.774;9.174;2023-06-26T09:14:37;4.80;;;4.40;;
13463;SDS011;6804;48.774;9.174;2023-06-26T09:17:05;5.10;;;4.60;;
13463;SDS011;6804;48.774;9.174;2023-06-26T09:19:37;5.13;;;4.50;;
13463;SDS011;6804;48.774;9.174;2023-06-26T09:22:10;5.28;;;4.60;;
13463;SDS011;6804;48.774;9.174;2023-06-26T09:24:45;5.05;;;4.50;;
13463;SDS011;6804;48.774;9.174;2023-06-26T09:27:13;5.30;;;4.88;;
13463;SDS011;6804;48.774;9.174;2023-06-26T09:29:40;4.78;;;4.38;;
13463;SDS011;6804;48.774;9.174;2023-06-26T09:32:08;5.50;;;5.00;;
13463;SDS011;6804;48.774;9.174;2023-06-26T09:37:25;6.15;;;5.00;;
13463;SDS011;6804;48.774;9.174;2023-06-26T09:39:57;6.32;;;5.03;;
13463;SDS011;6804;48.774;9.174;2023-06-26T09:42:28;6.70;;;5.75;;
13463;SDS011;6804;48.774;9.174;2023-06-26T09:44:59;5.30;;;4.80;;
13463;SDS011;6804;48.774;9.174;2023-06-26T09:47:29;5.47;;;4.97;;
13463;SDS011;6804;48.774;9.174;2023-06-26T09:49:58;5.47;;;4.97;;
13463;SDS011;6804;48.774;9.174;2023-06-26T09:52:27;8.57;;;5.25;;
13463;SDS011;6804;48.774;9.174;2023-06-26T09:55:09;7.22;;;5.10;;
13463;SDS011;6804;48.774;9.174;2023-06-26T09:57:40;4.93;;;4.43;;
13463;SDS011;6804;48.774;9.174;2023-06-26T10:00:10;7.43;;;4.80;;
13463;SDS011;6804;48.774;9.174;2023-06-26T10:02:41;5.25;;;4.70;;
13463;SDS011;6804;48.774;9.174;2023-06-26T10:05:09;5.78;;;5.28;;
13463;SDS011;6804;48.774;9.174;2023-06-26T10:07:40;5.00;;;4.50;;
13463;SDS011;6804;48.774;9.174;2023-06-26T10:10:09;5.28;;;4.70;;
13463;SDS011;6804;48.774;9.174;2023-06-26T10:12:40;6.07;;;5.43;;
13463;SDS011;6804;48.774;9.174;2023-06-26T10:15:10;6.90;;;5.35;;
13463;SDS011;6804;48.774;9.174;2023-06-26T10:17:42;5.47;;;4.97;;
13463;SDS011;6804;48.774;9.174;2023-06-26T10:20:13;6.65;;;5.30;;
13463;SDS011;6804;48.774;9.174;2023-06-26T10:22:48;6.75;;;5.32;;
13463;SDS011;6804;48.774;9.174;2023-06-26T10:25:21;5.63;;;5.03;;
13463;SDS011;6804;48.774;9.174;2023-06-26T10:27:52;8.07;;;6.95;;
13463;SDS011;6804;48.774;9.174;2023-06-26T10:30:24;5.85;;;5.20;;
13463;SDS011;6804;48.774;9.174;2023-06-26T10:35:42;7.65;;;5.80;;
13463;SDS011;6804;48.774;9.174;2023-06-26T10:38:11;6.47;;;5.82;;
13463;SDS011;6804;48.774;9.174;2023-06-26T10:40:44;6.30;;;5.72;;
13463;SDS011;6804;48.774;9.174;2023-06-26T10:43:15;6.97;;;6.28;;
13463;SDS011;6804;48.774;9.174;2023-06-26T10:45:45;5.95;;;5.38;;
13463;SDS011;6804;48.774;9.174;2023-06-26T10:48:20;6.53;;;5.82;;
13463;SDS011;6804;48.774;9.174;2023-06-26T10:50:51;8.52;;;5.95;;
13463;SDS011;6804;48.774;9.174;2023-06-26T10:53:23;7.57;;;5.07;;
13463;SDS011;6804;48.774;9.174;2023-06-26T10:56:03;9.68;;;6.18;;
13463;SDS011;6804;48.774;9.174;2023-06-26T10:58:33;6.55;;;5.88;;
13463;SDS011;6804;48.774;9.174;2023-06-26T11:01:19;5.97;;;5.47;;
13463;SDS011;6804;48.774;9.174;2023-06-26T11:03:59;6.55;;;5.95;;
13463;SDS011;6804;48.774;9.174;2023-06-26T11:06:29;6.55;;;5.80;;
13463;SDS011;6804;48.774;9.174;2023-06-26T11:09:01;7.00;;;5.60;;
13463;SDS011;6804;48.774;9.174;2023-06-26T11:14:34;6.70;;;5.68;;
13463;SDS011;6804;48.774;9.174;2023-06-26T11:17:04;7.28;;;6.18;;
13463;SDS011;6804;48.774;9.174;2023-06-26T11:19:33;7.07;;;5.95;;
13463;SDS011;6804;48.774;9.174;2023-06-26T11:22:10;6.47;;;5.90;;
13463;SDS011;6804;48.774;9.174;2023-06-26T11:24:42;8.57;;;6.28;;
13463;SDS011;6804;48.774;9.174;2023-06-26T11:27:14;6.32;;;5.70;;
13463;SDS011;6804;48.774;9.174;2023-06-26T11:29:47;6.22;;;5.68;;
13463;SDS011;6804;48.774;9.174;2023-06-26T11:32:15;6.28;;;5.70;;
13463;SDS011;6804;48.774;9.174;2023-06-26T11:34:44;6.50;;;5.82;;
13463;SDS011;6804;48.774;9.174;2023-06-26T11:37:19;6.70;;;5.45;;
13463;SDS011;6804;48.774;9.174;2023-06-26T11:39:52;6.40;;;5.80;;
13463;SDS011;6804;48.774;9.174;2023-06-26T11:42:23;6.80;;;5.40;;
13463;SDS011;6804;48.774;9.174;2023-06-26T11:44:51;6.93;;;5.97;;
13463;SDS011;6804;48.774;9.174;2023-06-26T11:47:20;6.85;;;6.20;;
13463;SDS011;6804;48.774;9.174;2023-06-26T11:49:54;6.97;;;5.85;;
13463;SDS011;6804;48.774;9.174;2023-06-26T11:52:22;8.68;;;5.93;;
13463;SDS011;6804;48.774;9.174;2023-06-26T11:54:51;6.35;;;5.80;;
13463;SDS011;6804;48.774;9.174;2023-06-26T11:57:21;8.48;;;6.03;;
13463;SDS011;6804;48.774;9.174;2023-06-26T11:59:50;7.22;;;6.10;;
13463;SDS011;6804;48.774;9.174;2023-06-26T12:02:21;6.80;;;5.95;;
13463;SDS011;6804;48.774;9.174;2023-06-26T12:04:52;6.32;;;5.80;;
13463;SDS011;6804;48.774;9.174;2023-06-26T12:07:21;6.70;;;6.03;;
13463;SDS011;6804;48.774;9.174;2023-06-26T12:09:52;6.05;;;5.47;;
13463;SDS011;6804;48.774;9.174;2023-06-26T12:12:20;8.95;;;5.72;;
13463;SDS011;6804;48.774;9.174;2023-06-26T12:14:51;6.05;;;5.45;;
13463;SDS011;6804;48.774;9.174;2023-06-26T12:17:21;5.90;;;5.05;;
13463;SDS011;6804;48.774;9.174;2023-06-26T12:19:54;8.63;;;5.53;;
13463;SDS011;6804;48.774;9.174;2023-06-26T12:22:24;7.97;;;5.35;;
13463;SDS011;6804;48.774;9.174;2023-06-26T12:25:02;7.25;;;6.10;;
13463;SDS011;6804;48.774;9.174;2023-06-26T12:27:37;6.53;;;5.93;;
13463;SDS011;6804;48.774;9.174;2023-06-26T12:30:08;7.00;;;5.97;;
13463;SDS011;6804;48.774;9.174;2023-06-26T12:32:43;7.43;;;5.70;;
13463;SDS011;6804;48.774;9.174;2023-06-26T12:35:12;5.80;;;5.25;;
13463;SDS011;6804;48.774;9.174;2023-06-26T12:37:44;8.30;;;5.25;;
13463;SDS011;6804;48.774;9.174;2023-06-26T12:40:18;6.13;;;5.63;;
13463;SDS011;6804;48.774;9.174;2023-06-26T12:42:50;6.60;;;6.03;;
13463;SDS011;6804;48.774;9.174;2023-06-26T12:45:19;6.95;;;5.22;;
13463;SDS011;6804;48.774;9.174;2023-06-26T12:47:48;8.57;;;6.47;;
13463;SDS011;6804;48.774;9.174;2023-06-26T12:50:18;5.88;;;4.97;;
13463;SDS011;6804;48.774;9.174;2023-06-26T12:52:54;6.70;;;5.75;;
13463;SDS011;6804;48.774;9.174;2023-06-26T12:55:22;6.53;;;5.90;;
13463;SDS011;6804;48.774;9.174;2023-06-26T12:57:54;6.95;;;5.95;;
13463;SDS011;6804;48.774;9.174;2023-06-26T13:00:22;6.40;;;5.78;;
13463;SDS011;6804;48.774;9.174;2023-06-26T13:02:54;5.97;;;5.40;;
13463;SDS011;6804;48.774;9.174;2023-06-26T13:05:23;5.88;;;5.38;;
13463;SDS011;6804;48.774;9.174;2023-06-26T13:07:50;7.00;;;5.70;;
13463;SDS011;6804;48.774;9.174;2023-06-26T13:10:18;10.30;;;5.88;;
13463;SDS011;6804;48.774;9.174;2023-06-26T13:12:46;8.05;;;5.57;;
13463;SDS011;6804;48.774;9.174;2023-06-26T13:18:03;5.90;;;5.32;;
13463;SDS011;6804;48.774;9.174;2023-06-26T13:20:31;9.52;;;5.72;;
13463;SDS011;6804;48.774;9.174;2023-06-26T13:23:01;6.43;;;5.25;;
13463;SDS011;6804;48.774;9.174;2023-06-26T13:25:31;6.20;;;5.30;;
13463;SDS011;6804;48.774;9.174;2023-06-26T13:28:08;5.70;;;5.20;;
13463;SDS011;6804;48.774;9.174;2023-06-26T13:30:38;8.60;;;5.30;;
13463;SDS011;6804;48.774;9.174;2023-06-26T13:33:06;6.18;;;5.38;;
13463;SDS011;6804;48.774;9.174;2023-06-26T13:35:36;5.78;;;5.28;;
13463;SDS011;6804;48.774;9.174;2023-06-26T13:38:06;9.73;;;5.80;;
13463;SDS011;6804;48.774;9.174;2023-06-26T13:40:37;6.72;;;5.20;;
13463;SDS011;6804;48.774;9.174;2023-06-26T13:43:04;6.63;;;4.75;;
13463;SDS011;6804;48.774;9.174;2023-06-26T13:45:34;5.68;;;4.85;;
13463;SDS011;6804;48.774;9.174;2023-06-26T13:48:14;7.15;;;5.32;;
13463;SDS011;6804;48.774;9.174;2023-06-26T13:50:41;5.30;;;4.80;;
13463;SDS011;6804;48.774;9.174;2023-06-26T13:53:13;7.57;;;4.85;;
13463;SDS011;6804;48.774;9.174;2023-06-26T13:55:43;6.20;;;4.80;;
13463;SDS011;6804;48.774;9.174;2023-06-26T13:58:12;5.50;;;5.00;;
13463;SDS011;6804;48.774;9.174;2023-06-26T14:00:42;5.20;;;4.72;;
13463;SDS011;6804;48.774;9.174;2023-06-26T14:03:15;5.68;;;5.00;;
13463;SDS011;6804;48.774;9.174;2023-06-26T14:05:49;6.93;;;4.50;;
13463;SDS011;6804;48.774;9.174;2023-06-26T14:08:17;5.38;;;4.88;;
13463;SDS011;6804;48.774;9.174;2023-06-26T14:10:45;5.78;;;4.85;;
13463;SDS011;6804;48.774;9.174;2023-06-26T14:13:12;6.22;;;4.50;;
13463;SDS011;6804;48.774;9.174;2023-06-26T14:15:42;6.38;;;4.75;;
13463;SDS011;6804;48.774;9.174;2023-06-26T14:18:10;5.10;;;4.60;;
13463;SDS011;6804;48.774;9.174;2023-06-26T14:20:47;7.30;;;4.80;;
13463;SDS011;6804;48.774;9.174;2023-06-26T14:23:16;4.20;;;3.90;;
13463;SDS011;6804;48.774;9.174;2023-06-26T14:25:46;4.47;;;4.07;;
13463;SDS011;6804;48.774;9.174;2023-06-26T14:28:16;4.88;;;3.70;;
13463;SDS011;6804;48.774;9.174;2023-06-26T14:30:44;5.45;;;4.25;;
13463;SDS011;6804;48.774;9.174;2023-06-26T14:33:12;6.72;;;3.67;;
13463;SDS011;6804;48.774;9.174;2023-06-26T14:35:41;4.03;;;3.55;;
13463;SDS011;6804;48.774;9.174;2023-06-26T14:38:15;6.05;;;3.28;;
13463;SDS011;6804;48.774;9.174;2023-06-26T14:40:43;3.97;;;3.13;;
13463;SDS011;6804;48.774;9.174;2023-06-26T14:43:13;4.60;;;3.17;;
13463;SDS011;6804;48.774;9.174;2023-06-26T14:45:43;4.55;;;3.10;;
13463;SDS011;6804;48.774;9.174;2023-06-26T14:48:11;3.22;;;2.88;;
13463;SDS011;6804;48.774;9.174;2023-06-26T14:50:39;3.60;;;3.30;;
13463;SDS011;6804;48.774;9.174;2023-06-26T14:53:07;3.45;;;3.15;;
13463;SDS011;6804;48.774;9.174;2023-06-26T14:55:37;5.13;;;3.38;;
13463;SDS011;6804;48.774;9.174;2023-06-26T14:58:07;4.85;;;3.30;;
13463;SDS011;6804;48.774;9.174;2023-06-26T15:00:35;3.58;;;3.13;;
13463;SDS011;6804;48.774;9.174;2023-06-26T15:03:05;4.55;;;3.22;;
13463;SDS011;6804;48.774;9.174;2023-06-26T15:05:34;4.38;;;3.60;;
13463;SDS011;6804;48.774;9.174;2023-06-26T15:10:55;3.80;;;3.20;;
13463;SDS011;6804;48.774;9.174;2023-06-26T15:13:23;4.60;;;3.50;;
13463;SDS011;6804;48.774;9.174;2023-06-26T15:15:51;4.22;;;3.20;;
13463;SDS011;6804;48.774;9.174;2023-06-26T15:21:06;3.22;;;2.90;;
13463;SDS011;6804;48.774;9.174;2023-06-26T15:23:37;6.10;;;3.83;;
13463;SDS011;6804;48.774;9.174;2023-06-26T15:26:08;4.38;;;3.67;;
13463;SDS011;6804;48.774;9.174;2023-06-26T15:28:39;6.03;;;4.25;;
13463;SDS011;6804;48.774;9.174;2023-06-26T15:31:07;6.53;;;4.22;;
13463;SDS011;6804;48.774;9.174;2023-06-26T15:33:35;6.18;;;4.03;;
13463;SDS011;6804;48.774;9.174;2023-06-26T15:38:50;6.47;;;4.20;;
13463;SDS011;6804;48.774;9.174;2023-06-26T15:41:19;4.93;;;4.25;;
13463;SDS011;6804;48.774;9.174;2023-06-26T15:46:34;7.65;;;4.43;;
13463;SDS011;6804;48.774;9.174;2023-06-26T15:49:07;7.03;;;4.72;;
13463;SDS011;6804;48.774;9.174;2023-06-26T15:54:22;6.35;;;4.80;;
13463;SDS011;6804;48.774;9.174;2023-06-26T15:56:56;5.40;;;4.90;;
13463;SDS011;6804;48.774;9.174;2023-06-26T15:59:24;5.80;;;5.00;;
13463;SDS011;6804;48.774;9.174;2023-06-26T16:01:58;6.20;;;5.32;;
13463;SDS011;6804;48.774;9.174;2023-06-26T16:04:26;5.60;;;5.10;;
13463;SDS011;6804;48.774;9.174;2023-06-26T16:06:58;6.75;;;5.20;;
13463;SDS011;6804;48.774;9.174;2023-06-26T16:09:28;7.18;;;5.43;;